sensor_id;sensor_type;location;lat;lon;timestamp;pressure;altitude;pressure_sealevel;temperature;humidity
53719;BME280;39616;48.872;9.390;2023-04-25T00:01:58;97742.56;;;8.18;79.14
53719;BME280;39616;48.872;9.390;2023-04-25T00:04:29;97748.97;;;8.22;81.03
53719;BME280;39616;48.872;9.390;2023-04-25T00:07:00;97738.66;;;8.10;82.69
53719;BME280;39616;48.872;9.390;2023-04-25T00:09:33;97744.84;;;8.11;83.37
53719;BME280;39616;48.872;9.390;2023-04-25T00:12:04;97739.06;;;7.98;84.64
53719;BME280;39616;48.872;9.390;2023-04-25T00:14:34;97732.28;;;8.01;85.50
53719;BME280;39616;48.872;9.390;2023-04-25T00:17:05;97729.59;;;8.01;86.09
53719;BME280;39616;48.872;9.390;2023-04-25T00:19:36;97733.88;;;8.02;88.67
53719;BME280;39616;48.872;9.390;2023-04-25T00:22:07;97736.09;;;8.00;89.07
53719;BME280;39616;48.872;9.390;2023-04-25T00:24:38;97738.84;;;7.95;88.29
53719;BME280;39616;48.872;9.390;2023-04-25T00:27:08;97729.97;;;7.94;89.68
53719;BME280;39616;48.872;9.390;2023-04-25T00:29:38;97729.97;;;7.94;90.29
53719;BME280;39616;48.872;9.390;2023-04-25T00:32:09;97721.84;;;7.94;90.59
53719;BME280;39616;48.872;9.390;2023-04-25T00:34:39;97727.78;;;7.96;90.99
53719;BME280;39616;48.872;9.390;2023-04-25T00:37:11;97719.16;;;7.94;91.54
53719;BME280;39616;48.872;9.390;2023-04-25T00:39:41;97718.88;;;7.96;92.83
53719;BME280;39616;48.872;9.390;2023-04-25T00:42:12;97711.38;;;7.93;89.21
53719;BME280;39616;48.872;9.390;2023-04-25T00:44:43;97707.88;;;7.92;90.67
53719;BME280;39616;48.872;9.390;2023-04-25T00:47:13;97713.31;;;7.87;89.94
53719;BME280;39616;48.872;9.390;2023-04-25T00:49:44;97710.94;;;7.86;89.68
53719;BME280;39616;48.872;9.390;2023-04-25T00:52:15;97707.44;;;7.85;89.71
53719;BME280;39616;48.872;9.390;2023-04-25T00:54:45;97707.72;;;7.84;90.14
53719;BME280;39616;48.872;9.390;2023-04-25T00:57:15;97703.94;;;7.85;87.74
53719;BME280;39616;48.872;9.390;2023-04-25T00:59:46;97703.72;;;7.81;89.89
53719;BME280;39616;48.872;9.390;2023-04-25T01:02:17;97704.78;;;7.80;88.42
53719;BME280;39616;48.872;9.390;2023-04-25T01:04:48;97692.34;;;7.84;86.24
53719;BME280;39616;48.872;9.390;2023-04-25T01:07:18;97700.50;;;7.79;87.35
53719;BME280;39616;48.872;9.390;2023-04-25T01:09:51;97697.31;;;7.77;87.49
53719;BME280;39616;48.872;9.390;2023-04-25T01:12:23;97692.72;;;7.78;87.21
53719;BME280;39616;48.872;9.390;2023-04-25T01:14:53;97704.56;;;7.77;87.58
53719;BME280;39616;48.872;9.390;2023-04-25T01:17:24;97694.63;;;7.77;88.06
53719;BME280;39616;48.872;9.390;2023-04-25T01:19:54;97691.97;;;7.72;87.14
53719;BME280;39616;48.872;9.390;2023-04-25T01:22:25;97688.69;;;7.75;86.81
53719;BME280;39616;48.872;9.390;2023-04-25T01:24:55;97692.28;;;7.70;85.76
53719;BME280;39616;48.872;9.390;2023-04-25T01:27:26;97681.69;;;7.74;86.75
53719;BME280;39616;48.872;9.390;2023-04-25T01:29:57;97685.41;;;7.78;86.90
53719;BME280;39616;48.872;9.390;2023-04-25T01:32:28;97678.63;;;7.81;86.96
53719;BME280;39616;48.872;9.390;2023-04-25T01:34:58;97676.22;;;7.79;86.20
53719;BME280;39616;48.872;9.390;2023-04-25T01:37:28;97678.69;;;7.75;86.46
53719;BME280;39616;48.872;9.390;2023-04-25T01:39:58;97687.69;;;7.71;86.04
53719;BME280;39616;48.872;9.390;2023-04-25T01:42:29;97678.41;;;7.77;86.98
53719;BME280;39616;48.872;9.390;2023-04-25T01:44:59;97680.28;;;7.77;85.85
53719;BME280;39616;48.872;9.390;2023-04-25T01:47:30;97679.50;;;7.76;87.05
53719;BME280;39616;48.872;9.390;2023-04-25T01:50:05;97679.78;;;7.74;87.11
53719;BME280;39616;48.872;9.390;2023-04-25T01:52:35;97680.59;;;7.75;86.21
53719;BME280;39616;48.872;9.390;2023-04-25T01:55:06;97684.09;;;7.75;86.89
53719;BME280;39616;48.872;9.390;2023-04-25T01:57:37;97685.47;;;7.73;87.04
53719;BME280;39616;48.872;9.390;2023-04-25T02:00:07;97674.75;;;7.68;87.00
53719;BME280;39616;48.872;9.390;2023-04-25T02:02:39;97677.47;;;7.68;86.95
53719;BME280;39616;48.872;9.390;2023-04-25T02:05:09;97681.53;;;7.65;87.17
53719;BME280;39616;48.872;9.390;2023-04-25T02:07:39;97688.63;;;7.61;87.23
53719;BME280;39616;48.872;9.390;2023-04-25T02:10:12;97679.50;;;7.57;87.79
53719;BME280;39616;48.872;9.390;2023-04-25T02:12:42;97678.50;;;7.53;87.52
53719;BME280;39616;48.872;9.390;2023-04-25T02:15:13;97675.78;;;7.53;88.06
53719;BME280;39616;48.872;9.390;2023-04-25T02:17:43;97678.78;;;7.52;87.07
53719;BME280;39616;48.872;9.390;2023-04-25T02:20:15;97669.38;;;7.49;87.10
53719;BME280;39616;48.872;9.390;2023-04-25T02:22:50;97675.28;;;7.51;87.36
53719;BME280;39616;48.872;9.390;2023-04-25T02:25:22;97673.66;;;7.50;87.21
53719;BME280;39616;48.872;9.390;2023-04-25T02:27:53;97672.56;;;7.51;88.04
53719;BME280;39616;48.872;9.390;2023-04-25T02:30:23;97671.78;;;7.50;87.30
53719;BME280;39616;48.872;9.390;2023-04-25T02:32:54;97667.41;;;7.55;88.79
53719;BME280;39616;48.872;9.390;2023-04-25T02:35:24;97664.41;;;7.56;89.68
53719;BME280;39616;48.872;9.390;2023-04-25T02:37:54;97665.78;;;7.54;93.52
53719;BME280;39616;48.872;9.390;2023-04-25T02:40:25;97663.53;;;7.42;91.12
53719;BME280;39616;48.872;9.390;2023-04-25T02:42:55;97659.53;;;7.39;92.98
53719;BME280;39616;48.872;9.390;2023-04-25T02:45:26;97666.03;;;7.38;93.51
53719;BME280;39616;48.872;9.390;2023-04-25T02:47:56;97674.03;;;7.43;93.16
53719;BME280;39616;48.872;9.390;2023-04-25T02:50:26;97668.28;;;7.31;93.16
53719;BME280;39616;48.872;9.390;2023-04-25T02:52:56;97659.59;;;7.34;93.93
53719;BME280;39616;48.872;9.390;2023-04-25T02:55:27;97660.72;;;7.33;95.92
53719;BME280;39616;48.872;9.390;2023-04-25T02:57:57;97664.47;;;7.32;95.51
53719;BME280;39616;48.872;9.390;2023-04-25T03:00:28;97662.09;;;7.31;94.81
53719;BME280;39616;48.872;9.390;2023-04-25T03:02:58;97655.91;;;7.30;93.83
53719;BME280;39616;48.872;9.390;2023-04-25T03:05:28;97653.63;;;7.37;94.18
53719;BME280;39616;48.872;9.390;2023-04-25T03:07:59;97653.41;;;7.34;92.80
53719;BME280;39616;48.872;9.390;2023-04-25T03:10:29;97653.78;;;7.27;92.87
53719;BME280;39616;48.872;9.390;2023-04-25T03:12:59;97656.69;;;7.31;92.03
53719;BME280;39616;48.872;9.390;2023-04-25T03:15:30;97658.81;;;7.34;92.69
53719;BME280;39616;48.872;9.390;2023-04-25T03:18:01;97661.50;;;7.34;92.56
53719;BME280;39616;48.872;9.390;2023-04-25T03:20:31;97651.59;;;7.29;93.29
53719;BME280;39616;48.872;9.390;2023-04-25T03:23:02;97652.66;;;7.28;93.51
53719;BME280;39616;48.872;9.390;2023-04-25T03:25:32;97652.41;;;7.30;94.23
53719;BME280;39616;48.872;9.390;2023-04-25T03:28:02;97644.53;;;7.33;93.31
53719;BME280;39616;48.872;9.390;2023-04-25T03:30:33;97639.72;;;7.30;93.86
53719;BME280;39616;48.872;9.390;2023-04-25T03:33:03;97641.38;;;7.26;93.49
53719;BME280;39616;48.872;9.390;2023-04-25T03:35:33;97636.84;;;7.21;94.46
53719;BME280;39616;48.872;9.390;2023-04-25T03:38:04;97641.53;;;7.16;94.17
53719;BME280;39616;48.872;9.390;2023-04-25T03:40:34;97647.41;;;7.18;91.71
53719;BME280;39616;48.872;9.390;2023-04-25T03:43:05;97644.44;;;7.19;93.95
53719;BME280;39616;48.872;9.390;2023-04-25T03:45:35;97645.16;;;7.25;94.81
53719;BME280;39616;48.872;9.390;2023-04-25T03:48:05;97646.47;;;7.28;94.31
53719;BME280;39616;48.872;9.390;2023-04-25T03:50:35;97652.88;;;7.32;95.19
53719;BME280;39616;48.872;9.390;2023-04-25T03:53:06;97649.31;;;7.36;94.32
53719;BME280;39616;48.872;9.390;2023-04-25T03:55:36;97648.53;;;7.36;93.77
53719;BME280;39616;48.872;9.390;2023-04-25T03:58:06;97642.75;;;7.42;92.94
53719;BME280;39616;48.872;9.390;2023-04-25T04:00:38;97650.28;;;7.45;93.02
53719;BME280;39616;48.872;9.390;2023-04-25T04:03:08;97653.84;;;7.41;93.44
53719;BME280;39616;48.872;9.390;2023-04-25T04:05:38;97647.94;;;7.39;92.53
53719;BME280;39616;48.872;9.390;2023-04-25T04:08:10;97652.44;;;7.43;91.80
53719;BME280;39616;48.872;9.390;2023-04-25T04:10:40;97650.28;;;7.45;91.91
53719;BME280;39616;48.872;9.390;2023-04-25T04:13:11;97641.59;;;7.48;91.04
53719;BME280;39616;48.872;9.390;2023-04-25T04:15:41;97648.16;;;7.42;91.61
53719;BME280;39616;48.872;9.390;2023-04-25T04:18:11;97647.22;;;7.33;91.97
53719;BME280;39616;48.872;9.390;2023-04-25T04:20:42;97649.09;;;7.33;92.07
53719;BME280;39616;48.872;9.390;2023-04-25T04:23:12;97650.41;;;7.35;91.07
53719;BME280;39616;48.872;9.390;2023-04-25T04:25:43;97651.59;;;7.29;90.77
53719;BME280;39616;48.872;9.390;2023-04-25T04:28:13;97650.50;;;7.30;90.53
53719;BME280;39616;48.872;9.390;2023-04-25T04:30:43;97656.69;;;7.31;91.07
53719;BME280;39616;48.872;9.390;2023-04-25T04:33:16;97650.50;;;7.30;90.72
53719;BME280;39616;48.872;9.390;2023-04-25T04:35:50;97663.91;;;7.35;91.95
53719;BME280;39616;48.872;9.390;2023-04-25T04:38:22;97660.09;;;7.36;90.54
53719;BME280;39616;48.872;9.390;2023-04-25T04:40:52;97662.81;;;7.36;90.59
53719;BME280;39616;48.872;9.390;2023-04-25T04:43:23;97667.63;;;7.39;91.01
53719;BME280;39616;48.872;9.390;2023-04-25T04:45:54;97661.66;;;7.42;90.62
53719;BME280;39616;48.872;9.390;2023-04-25T04:48:26;97668.38;;;7.45;90.13
53719;BME280;39616;48.872;9.390;2023-04-25T04:50:56;97669.28;;;7.35;90.87
53719;BME280;39616;48.872;9.390;2023-04-25T04:53:27;97673.09;;;7.34;90.29
53719;BME280;39616;48.872;9.390;2023-04-25T04:55:57;97667.91;;;7.38;92.71
53719;BME280;39616;48.872;9.390;2023-04-25T04:58:28;97681.19;;;7.53;91.80
53719;BME280;39616;48.872;9.390;2023-04-25T05:00:59;97688.41;;;7.58;90.52
53719;BME280;39616;48.872;9.390;2023-04-25T05:03:30;97690.66;;;7.50;90.87
53719;BME280;39616;48.872;9.390;2023-04-25T05:06:00;97696.34;;;7.49;91.00
53719;BME280;39616;48.872;9.390;2023-04-25T05:08:31;97679.72;;;7.42;91.17
53719;BME280;39616;48.872;9.390;2023-04-25T05:11:01;97686.50;;;7.58;90.69
53719;BME280;39616;48.872;9.390;2023-04-25T05:13:31;97687.59;;;7.57;90.48
53719;BME280;39616;48.872;9.390;2023-04-25T05:16:02;97690.97;;;7.49;90.07
53719;BME280;39616;48.872;9.390;2023-04-25T05:18:32;97687.97;;;7.50;91.06
53719;BME280;39616;48.872;9.390;2023-04-25T05:21:03;97697.06;;;7.55;89.77
53719;BME280;39616;48.872;9.390;2023-04-25T05:23:33;97695.47;;;7.35;90.75
53719;BME280;39616;48.872;9.390;2023-04-25T05:26:04;97686.59;;;7.53;90.71
53719;BME280;39616;48.872;9.390;2023-04-25T05:28:34;97691.69;;;7.55;91.16
53719;BME280;39616;48.872;9.390;2023-04-25T05:31:04;97684.75;;;7.67;90.36
53719;BME280;39616;48.872;9.390;2023-04-25T05:33:35;97691.91;;;7.39;90.72
53719;BME280;39616;48.872;9.390;2023-04-25T05:36:06;97685.78;;;7.53;91.61
53719;BME280;39616;48.872;9.390;2023-04-25T05:38:36;97690.16;;;7.48;91.06
53719;BME280;39616;48.872;9.390;2023-04-25T05:41:06;97699.13;;;7.44;92.05
53719;BME280;39616;48.872;9.390;2023-04-25T05:43:37;97693.75;;;7.63;89.83
53719;BME280;39616;48.872;9.390;2023-04-25T05:46:08;97697.06;;;7.55;88.20
53719;BME280;39616;48.872;9.390;2023-04-25T05:48:39;97701.84;;;7.44;87.59
53719;BME280;39616;48.872;9.390;2023-04-25T05:51:09;97688.91;;;7.60;87.08
53719;BME280;39616;48.872;9.390;2023-04-25T05:53:40;97689.44;;;7.81;87.24
53719;BME280;39616;48.872;9.390;2023-04-25T05:56:10;97684.66;;;7.72;85.90
53719;BME280;39616;48.872;9.390;2023-04-25T05:58:40;97695.75;;;7.90;86.52
53719;BME280;39616;48.872;9.390;2023-04-25T06:01:11;97694.06;;;7.94;86.73
53719;BME280;39616;48.872;9.390;2023-04-25T06:03:42;97690.41;;;8.04;85.88
53719;BME280;39616;48.872;9.390;2023-04-25T06:06:15;97687.91;;;8.07;85.70
53719;BME280;39616;48.872;9.390;2023-04-25T06:08:45;97686.91;;;8.03;87.41
53719;BME280;39616;48.872;9.390;2023-04-25T06:11:15;97695.28;;;8.02;88.75
53719;BME280;39616;48.872;9.390;2023-04-25T06:13:46;97696.19;;;7.97;87.29
53719;BME280;39616;48.872;9.390;2023-04-25T06:16:16;97698.97;;;7.92;87.61
53719;BME280;39616;48.872;9.390;2023-04-25T06:18:46;97693.16;;;7.98;87.06
53719;BME280;39616;48.872;9.390;2023-04-25T06:21:17;97701.28;;;7.98;88.52
53719;BME280;39616;48.872;9.390;2023-04-25T06:23:47;97702.75;;;7.91;87.93
53719;BME280;39616;48.872;9.390;2023-04-25T06:26:17;97703.38;;;8.02;87.53
53719;BME280;39616;48.872;9.390;2023-04-25T06:28:48;97705.94;;;8.12;87.04
53719;BME280;39616;48.872;9.390;2023-04-25T06:31:18;97696.22;;;8.11;86.76
53719;BME280;39616;48.872;9.390;2023-04-25T06:33:48;97691.16;;;8.56;85.21
53719;BME280;39616;48.872;9.390;2023-04-25T06:36:18;97687.59;;;8.88;83.56
53719;BME280;39616;48.872;9.390;2023-04-25T06:38:51;97678.13;;;8.58;83.77
53719;BME280;39616;48.872;9.390;2023-04-25T06:41:22;97680.16;;;8.66;83.20
53719;BME280;39616;48.872;9.390;2023-04-25T06:43:52;97678.13;;;9.13;82.47
53719;BME280;39616;48.872;9.390;2023-04-25T06:46:23;97674.94;;;9.11;80.65
53719;BME280;39616;48.872;9.390;2023-04-25T06:48:53;97676.38;;;9.44;78.85
53719;BME280;39616;48.872;9.390;2023-04-25T06:51:23;97677.41;;;9.71;78.46
53719;BME280;39616;48.872;9.390;2023-04-25T06:53:54;97674.56;;;9.54;77.08
53719;BME280;39616;48.872;9.390;2023-04-25T06:56:24;97680.28;;;9.38;74.95
53719;BME280;39616;48.872;9.390;2023-04-25T06:58:55;97681.38;;;9.51;74.40
53719;BME280;39616;48.872;9.390;2023-04-25T07:01:25;97675.34;;;9.90;73.56
53719;BME280;39616;48.872;9.390;2023-04-25T07:03:55;97686.31;;;9.72;74.09
53719;BME280;39616;48.872;9.390;2023-04-25T07:06:26;97683.91;;;10.06;72.54
53719;BME280;39616;48.872;9.390;2023-04-25T07:08:57;97678.34;;;10.11;73.75
53719;BME280;39616;48.872;9.390;2023-04-25T07:11:28;97689.97;;;9.89;74.67
53719;BME280;39616;48.872;9.390;2023-04-25T07:13:58;97687.06;;;9.63;74.90
53719;BME280;39616;48.872;9.390;2023-04-25T07:16:28;97691.25;;;9.70;74.82
53719;BME280;39616;48.872;9.390;2023-04-25T07:18:59;97686.75;;;9.15;76.45
53719;BME280;39616;48.872;9.390;2023-04-25T07:21:29;97693.03;;;9.24;77.01
53719;BME280;39616;48.872;9.390;2023-04-25T07:24:01;97687.16;;;8.94;77.75
53719;BME280;39616;48.872;9.390;2023-04-25T07:26:31;97691.78;;;9.08;78.45
53719;BME280;39616;48.872;9.390;2023-04-25T07:29:01;97694.06;;;8.87;78.84
53719;BME280;39616;48.872;9.390;2023-04-25T07:31:31;97699.97;;;8.75;78.78
53719;BME280;39616;48.872;9.390;2023-04-25T07:34:02;97709.38;;;8.64;79.21
53719;BME280;39616;48.872;9.390;2023-04-25T07:36:32;97701.72;;;8.38;80.91
53719;BME280;39616;48.872;9.390;2023-04-25T07:39:03;97712.09;;;8.31;80.97
53719;BME280;39616;48.872;9.390;2023-04-25T07:41:33;97710.03;;;8.42;81.59
53719;BME280;39616;48.872;9.390;2023-04-25T07:44:04;97713.66;;;8.18;81.21
53719;BME280;39616;48.872;9.390;2023-04-25T07:46:35;97713.28;;;8.25;81.60
53719;BME280;39616;48.872;9.390;2023-04-25T07:49:05;97720.34;;;8.21;83.22
53719;BME280;39616;48.872;9.390;2023-04-25T07:51:36;97718.06;;;8.28;82.46
53719;BME280;39616;48.872;9.390;2023-04-25T07:54:06;97716.66;;;8.50;82.20
53719;BME280;39616;48.872;9.390;2023-04-25T07:56:36;97728.22;;;8.36;81.73
53719;BME280;39616;48.872;9.390;2023-04-25T07:59:07;97720.78;;;8.47;81.72
53719;BME280;39616;48.872;9.390;2023-04-25T08:01:37;97729.38;;;8.49;81.73
53719;BME280;39616;48.872;9.390;2023-04-25T08:04:07;97735.38;;;8.46;83.29
53719;BME280;39616;48.872;9.390;2023-04-25T08:06:38;97736.56;;;8.40;83.82
53719;BME280;39616;48.872;9.390;2023-04-25T08:09:08;97740.09;;;8.35;88.96
53719;BME280;39616;48.872;9.390;2023-04-25T08:11:39;97743.06;;;8.20;88.84
53719;BME280;39616;48.872;9.390;2023-04-25T08:14:09;97739.59;;;8.01;94.62
53719;BME280;39616;48.872;9.390;2023-04-25T08:16:40;97746.09;;;7.99;97.29
53719;BME280;39616;48.872;9.390;2023-04-25T08:19:10;97751.84;;;7.93;95.34
53719;BME280;39616;48.872;9.390;2023-04-25T08:21:41;97755.72;;;7.87;99.14
53719;BME280;39616;48.872;9.390;2023-04-25T08:24:11;97757.75;;;7.76;98.25
53719;BME280;39616;48.872;9.390;2023-04-25T08:26:41;97756.97;;;7.57;100.00
53719;BME280;39616;48.872;9.390;2023-04-25T08:29:12;97767.78;;;7.33;100.00
53719;BME280;39616;48.872;9.390;2023-04-25T08:31:42;97768.47;;;7.19;100.00
53719;BME280;39616;48.872;9.390;2023-04-25T08:34:12;97773.72;;;7.11;100.00
53719;BME280;39616;48.872;9.390;2023-04-25T08:36:43;97776.97;;;7.08;100.00
53719;BME280;39616;48.872;9.390;2023-04-25T08:39:13;97782.78;;;6.96;100.00
53719;BME280;39616;48.872;9.390;2023-04-25T08:41:44;97782.97;;;6.99;100.00
53719;BME280;39616;48.872;9.390;2023-04-25T08:44:14;97783.38;;;6.88;100.00
53719;BME280;39616;48.872;9.390;2023-04-25T08:46:46;97790.41;;;7.13;100.00
53719;BME280;39616;48.872;9.390;2023-04-25T08:49:19;97790.00;;;7.24;100.00
53719;BME280;39616;48.872;9.390;2023-04-25T08:51:50;97794.53;;;7.29;100.00
53719;BME280;39616;48.872;9.390;2023-04-25T08:54:23;97796.69;;;7.51;100.00
53719;BME280;39616;48.872;9.390;2023-04-25T08:56:57;97800.53;;;7.45;100.00
53719;BME280;39616;48.872;9.390;2023-04-25T08:59:28;97804.28;;;7.49;100.00
53719;BME280;39616;48.872;9.390;2023-04-25T09:02:00;97796.88;;;7.79;100.00
53719;BME280;39616;48.872;9.390;2023-04-25T09:04:31;97807.53;;;7.89;100.00
53719;BME280;39616;48.872;9.390;2023-04-25T09:07:02;97813.38;;;7.96;100.00
53719;BME280;39616;48.872;9.390;2023-04-25T09:09:32;97814.09;;;8.02;100.00
53719;BME280;39616;48.872;9.390;2023-04-25T09:12:02;97810.59;;;8.01;100.00
53719;BME280;39616;48.872;9.390;2023-04-25T09:14:33;97814.97;;;8.16;100.00
53719;BME280;39616;48.872;9.390;2023-04-25T09:17:04;97819.00;;;8.37;100.00
53719;BME280;39616;48.872;9.390;2023-04-25T09:19:35;97817.44;;;8.31;100.00
53719;BME280;39616;48.872;9.390;2023-04-25T09:22:07;97822.63;;;8.46;100.00
53719;BME280;39616;48.872;9.390;2023-04-25T09:24:39;97830.31;;;8.58;100.00
53719;BME280;39616;48.872;9.390;2023-04-25T09:27:12;97825.91;;;8.62;100.00
53719;BME280;39616;48.872;9.390;2023-04-25T09:29:42;97834.28;;;8.61;100.00
53719;BME280;39616;48.872;9.390;2023-04-25T09:32:23;97828.34;;;8.78;100.00
53719;BME280;39616;48.872;9.390;2023-04-25T09:34:55;97839.53;;;8.71;100.00
53719;BME280;39616;48.872;9.390;2023-04-25T09:37:28;97843.00;;;8.58;100.00
53719;BME280;39616;48.872;9.390;2023-04-25T09:40:00;97851.72;;;8.68;100.00
53719;BME280;39616;48.872;9.390;2023-04-25T09:42:33;97838.38;;;8.77;100.00
53719;BME280;39616;48.872;9.390;2023-04-25T09:45:04;97846.97;;;8.79;100.00
53719;BME280;39616;48.872;9.390;2023-04-25T09:47:37;97850.25;;;8.76;100.00
53719;BME280;39616;48.872;9.390;2023-04-25T09:50:14;97856.50;;;8.90;100.00
53719;BME280;39616;48.872;9.390;2023-04-25T09:52:45;97858.75;;;9.16;100.00
53719;BME280;39616;48.872;9.390;2023-04-25T09:55:33;97856.81;;;9.35;100.00
53719;BME280;39616;48.872;9.390;2023-04-25T09:58:05;97859.00;;;9.33;96.13
53719;BME280;39616;48.872;9.390;2023-04-25T10:00:37;97861.28;;;9.26;99.51
53719;BME280;39616;48.872;9.390;2023-04-25T10:03:08;97863.00;;;9.22;96.74
53719;BME280;39616;48.872;9.390;2023-04-25T10:05:39;97869.59;;;9.02;91.94
53719;BME280;39616;48.872;9.390;2023-04-25T10:08:11;97864.66;;;8.71;100.00
53719;BME280;39616;48.872;9.390;2023-04-25T10:10:42;97871.41;;;8.55;100.00
53719;BME280;39616;48.872;9.390;2023-04-25T10:13:13;97868.28;;;8.48;100.00
53719;BME280;39616;48.872;9.390;2023-04-25T10:15:45;97875.16;;;8.40;100.00
53719;BME280;39616;48.872;9.390;2023-04-25T10:18:16;97881.91;;;8.19;100.00
53719;BME280;39616;48.872;9.390;2023-04-25T10:20:48;97876.66;;;8.09;100.00
53719;BME280;39616;48.872;9.390;2023-04-25T10:23:19;97881.44;;;7.93;100.00
53719;BME280;39616;48.872;9.390;2023-04-25T10:25:51;97889.31;;;7.89;100.00
53719;BME280;39616;48.872;9.390;2023-04-25T10:28:22;97892.41;;;8.02;100.00
53719;BME280;39616;48.872;9.390;2023-04-25T10:31:00;97894.72;;;7.89;100.00
53719;BME280;39616;48.872;9.390;2023-04-25T10:33:38;97901.53;;;8.06;100.00
53719;BME280;39616;48.872;9.390;2023-04-25T10:36:13;97915.28;;;7.61;100.00
53719;BME280;39616;48.872;9.390;2023-04-25T10:38:45;97914.47;;;7.61;100.00
53719;BME280;39616;48.872;9.390;2023-04-25T10:41:18;97918.72;;;7.43;100.00
53719;BME280;39616;48.872;9.390;2023-04-25T10:43:59;97940.28;;;7.14;100.00
53719;BME280;39616;48.872;9.390;2023-04-25T10:46:30;97956.84;;;6.68;100.00
53719;BME280;39616;48.872;9.390;2023-04-25T10:49:05;97969.78;;;6.11;100.00
53719;BME280;39616;48.872;9.390;2023-04-25T10:51:37;97983.41;;;5.40;100.00
53719;BME280;39616;48.872;9.390;2023-04-25T10:54:08;97986.91;;;4.89;100.00
53719;BME280;39616;48.872;9.390;2023-04-25T10:56:41;97992.78;;;4.60;100.00
53719;BME280;39616;48.872;9.390;2023-04-25T10:59:15;97993.00;;;4.44;100.00
53719;BME280;39616;48.872;9.390;2023-04-25T11:01:47;97995.16;;;4.47;100.00
53719;BME280;39616;48.872;9.390;2023-04-25T11:04:37;98000.84;;;4.60;100.00
53719;BME280;39616;48.872;9.390;2023-04-25T11:07:32;97988.50;;;4.65;100.00
53719;BME280;39616;48.872;9.390;2023-04-25T11:10:05;97994.44;;;4.87;100.00
53719;BME280;39616;48.872;9.390;2023-04-25T11:12:36;97989.88;;;5.08;100.00
53719;BME280;39616;48.872;9.390;2023-04-25T11:15:07;97994.72;;;5.21;100.00
53719;BME280;39616;48.872;9.390;2023-04-25T11:17:38;97996.06;;;5.29;100.00
53719;BME280;39616;48.872;9.390;2023-04-25T11:20:10;97992.56;;;5.39;100.00
53719;BME280;39616;48.872;9.390;2023-04-25T11:22:44;97988.50;;;5.51;100.00
53719;BME280;39616;48.872;9.390;2023-04-25T11:25:15;97993.88;;;5.62;100.00
53719;BME280;39616;48.872;9.390;2023-04-25T11:30:20;97977.72;;;5.72;100.00
53719;BME280;39616;48.872;9.390;2023-04-25T11:32:51;97976.59;;;5.83;100.00
53719;BME280;39616;48.872;9.390;2023-04-25T11:35:22;97973.34;;;5.96;100.00
53719;BME280;39616;48.872;9.390;2023-04-25T11:37:53;97978.94;;;6.15;100.00
53719;BME280;39616;48.872;9.390;2023-04-25T11:40:23;97983.09;;;6.47;100.00
53719;BME280;39616;48.872;9.390;2023-04-25T11:42:54;97978.66;;;6.66;100.00
53719;BME280;39616;48.872;9.390;2023-04-25T11:45:24;97983.06;;;6.91;100.00
53719;BME280;39616;48.872;9.390;2023-04-25T11:47:55;97977.59;;;7.01;100.00
53719;BME280;39616;48.872;9.390;2023-04-25T11:50:27;97981.22;;;7.21;100.00
53719;BME280;39616;48.872;9.390;2023-04-25T11:52:58;97974.16;;;7.25;100.00
53719;BME280;39616;48.872;9.390;2023-04-25T11:55:30;97979.34;;;7.50;100.00
53719;BME280;39616;48.872;9.390;2023-04-25T11:58:00;97974.53;;;7.47;100.00
53719;BME280;39616;48.872;9.390;2023-04-25T12:00:31;97982.34;;;7.49;100.00
53719;BME280;39616;48.872;9.390;2023-04-25T12:03:02;97987.66;;;7.83;100.00
53719;BME280;39616;48.872;9.390;2023-04-25T12:05:32;97985.94;;;7.92;100.00
53719;BME280;39616;48.872;9.390;2023-04-25T12:08:11;97989.56;;;8.07;100.00
53719;BME280;39616;48.872;9.390;2023-04-25T12:10:43;97987.75;;;8.21;100.00
53719;BME280;39616;48.872;9.390;2023-04-25T12:13:24;97987.91;;;8.11;100.00
53719;BME280;39616;48.872;9.390;2023-04-25T12:15:55;98000.88;;;8.09;100.00
53719;BME280;39616;48.872;9.390;2023-04-25T12:18:26;97989.41;;;8.17;100.00
53719;BME280;39616;48.872;9.390;2023-04-25T12:21:00;97986.25;;;8.34;100.00
53719;BME280;39616;48.872;9.390;2023-04-25T12:23:30;97992.81;;;8.28;100.00
53719;BME280;39616;48.872;9.390;2023-04-25T12:26:01;97999.16;;;8.42;100.00
53719;BME280;39616;48.872;9.390;2023-04-25T12:28:32;97997.81;;;8.39;100.00
53719;BME280;39616;48.872;9.390;2023-04-25T12:31:04;98005.59;;;8.22;100.00
53719;BME280;39616;48.872;9.390;2023-04-25T12:33:36;98010.25;;;8.40;100.00
53719;BME280;39616;48.872;9.390;2023-04-25T12:36:07;98005.69;;;8.36;100.00
53719;BME280;39616;48.872;9.390;2023-04-25T12:38:42;98006.78;;;8.59;100.00
53719;BME280;39616;48.872;9.390;2023-04-25T12:41:12;98010.06;;;8.93;100.00
53719;BME280;39616;48.872;9.390;2023-04-25T12:43:42;98017.41;;;9.26;100.00
53719;BME280;39616;48.872;9.390;2023-04-25T12:46:13;98011.16;;;9.11;96.84
53719;BME280;39616;48.872;9.390;2023-04-25T12:48:43;98013.72;;;9.03;100.00
53719;BME280;39616;48.872;9.390;2023-04-25T12:51:14;98016.78;;;8.77;100.00
53719;BME280;39616;48.872;9.390;2023-04-25T12:53:44;98019.38;;;8.87;100.00
53719;BME280;39616;48.872;9.390;2023-04-25T12:56:14;98024.09;;;8.95;99.19
53719;BME280;39616;48.872;9.390;2023-04-25T12:58:47;98025.25;;;8.89;99.53
53719;BME280;39616;48.872;9.390;2023-04-25T13:01:18;98030.88;;;9.12;100.00
53719;BME280;39616;48.872;9.390;2023-04-25T13:03:49;98024.66;;;9.11;100.00
53719;BME280;39616;48.872;9.390;2023-04-25T13:06:20;98021.03;;;9.35;100.00
53719;BME280;39616;48.872;9.390;2023-04-25T13:08:50;98032.44;;;9.51;99.96
53719;BME280;39616;48.872;9.390;2023-04-25T13:11:21;98028.72;;;9.47;97.83
53719;BME280;39616;48.872;9.390;2023-04-25T13:13:51;98018.09;;;9.97;97.72
53719;BME280;39616;48.872;9.390;2023-04-25T13:16:22;98025.28;;;9.74;90.46
53719;BME280;39616;48.872;9.390;2023-04-25T13:18:52;98026.69;;;9.85;89.13
53719;BME280;39616;48.872;9.390;2023-04-25T13:21:22;98019.88;;;9.87;87.99
53719;BME280;39616;48.872;9.390;2023-04-25T13:23:53;98014.47;;;10.15;90.08
53719;BME280;39616;48.872;9.390;2023-04-25T13:26:23;98011.09;;;9.63;89.77
53719;BME280;39616;48.872;9.390;2023-04-25T13:28:54;98021.97;;;9.77;89.70
53719;BME280;39616;48.872;9.390;2023-04-25T13:31:24;98022.00;;;9.90;93.73